Time;durP1;ratioP1;P1;durP2;ratioP2;P2;SDS_P1;SDS_P2;PMS_P1;PMS_P2;Temp;Humidity;BMP_temperature;BMP_pressure;BME280_temperature;BME280_humidity;BME280_pressure;Samples;Min_cycle;Max_cycle;Signal;HPM_P1;HPM_P2
2023/03/14 00:00:52;;;;;;;;;2.00;1.00;;;;;-147.17;100.00;-15917.19;5031486;28;50994;-50
2023/03/14 00:03:17;;;;;;;;;1.00;0.00;;;;;-147.17;100.00;-15917.19;5031512;28;51214;-48
2023/03/14 00:05:42;;;;;;;;;0.33;0.00;;;;;-147.17;100.00;-15917.19;5032094;28;51263;-47
2023/03/14 00:08:08;;;;;;;;;1.00;1.00;;;;;-147.17;100.00;-15917.19;5029810;28;52023;-50
2023/03/14 00:10:35;;;;;;;;;0.33;0.00;;;;;-147.17;100.00;-15917.19;5030800;28;51203;-48
2023/03/14 00:13:01;;;;;;;;;0.00;0.00;;;;;-147.17;100.00;-15917.19;5028829;28;51197;-49
2023/03/14 00:15:26;;;;;;;;;1.00;1.00;;;;;-147.17;100.00;-15917.19;5029189;28;50987;-50
2023/03/14 00:17:52;;;;;;;;;1.33;1.00;;;;;-147.17;100.00;-15917.19;5009340;28;52778;-49
2023/03/14 00:20:17;;;;;;;;;1.67;1.00;;;;;-147.17;100.00;-15917.19;5031762;28;51365;-48
2023/03/14 00:22:43;;;;;;;;;1.25;0.75;;;;;-147.17;100.00;-15917.19;5015136;28;51073;-50
2023/03/14 00:25:10;;;;;;;;;0.00;0.00;;;;;-147.17;100.00;-15917.19;5032952;28;51125;-49
2023/03/14 00:27:36;;;;;;;;;1.00;0.33;;;;;-147.17;100.00;-15917.19;5035071;28;52120;-49
2023/03/14 00:30:02;;;;;;;;;1.00;0.33;;;;;-147.17;100.00;-15917.19;5028462;28;51317;-47
2023/03/14 00:32:27;;;;;;;;;0.00;0.00;;;;;-147.17;100.00;-15917.19;5032865;28;51429;-50
2023/03/14 00:34:53;;;;;;;;;1.00;0.00;;;;;-147.17;100.00;-15917.19;5033252;28;51113;-50
2023/03/14 00:37:18;;;;;;;;;1.00;0.67;;;;;-147.17;100.00;-15917.19;5024390;28;52254;-47
2023/03/14 00:39:43;;;;;;;;;0.00;0.00;;;;;-147.17;100.00;-15917.19;5033512;28;51074;-46
2023/03/14 00:42:10;;;;;;;;;0.00;0.00;;;;;-147.17;100.00;-15917.19;5033929;28;51337;-46
2023/03/14 00:44:36;;;;;;;;;0.00;0.00;;;;;-147.17;100.00;-15917.19;5032619;28;51066;-50
2023/03/14 00:47:01;;;;;;;;;0.00;0.00;;;;;-147.17;100.00;-15917.19;5031122;28;52339;-49
2023/03/14 00:49:27;;;;;;;;;1.00;0.00;;;;;-147.17;100.00;-15917.19;5033937;28;51192;-50
2023/03/14 00:51:52;;;;;;;;;1.00;1.00;;;;;-147.17;100.00;-15917.19;5034040;28;51594;-48
2023/03/14 00:54:21;;;;;;;;;1.00;0.00;;;;;-147.17;100.00;-15917.19;5028310;28;51424;-48
2023/03/14 00:56:46;;;;;;;;;0.67;0.67;;;;;-147.17;100.00;-15917.19;5035133;28;53147;-48
2023/03/14 00:59:12;;;;;;;;;2.00;0.00;;;;;-147.17;100.00;-15917.19;5035701;28;51086;-47
2023/03/14 01:01:39;;;;;;;;;0.00;0.00;;;;;-147.17;100.00;-15917.19;5030175;28;50967;-45
2023/03/14 01:04:04;;;;;;;;;0.00;0.00;;;;;-147.17;100.00;-15917.19;5031329;28;51033;-47
2023/03/14 01:06:30;;;;;;;;;0.67;0.67;;;;;-147.17;100.00;-15917.19;5033644;28;51994;-47
2023/03/14 01:08:56;;;;;;;;;0.67;0.00;;;;;-147.17;100.00;-15917.19;5014878;28;51279;-49
2023/03/14 01:11:28;;;;;;;;;1.00;0.00;;;;;-147.17;100.00;-15917.19;5037096;28;51216;-48
2023/03/14 01:13:54;;;;;;;;;0.33;0.00;;;;;-147.17;100.00;-15917.19;5028065;28;51255;-47
2023/03/14 01:16:21;;;;;;;;;0.00;0.00;;;;;-147.17;100.00;-15917.19;5032304;28;52291;-47
2023/03/14 01:18:48;;;;;;;;;1.00;0.33;;;;;-147.17;100.00;-15917.19;5028560;28;51189;-47
2023/03/14 01:21:24;;;;;;;;;0.67;0.67;;;;;-147.17;100.00;-15917.19;5033754;28;51701;-48
2023/03/14 01:23:52;;;;;;;;;1.00;0.00;;;;;-147.17;100.00;-15917.19;5028048;28;51154;-48
2023/03/14 01:26:20;;;;;;;;;0.00;0.00;;;;;-147.17;100.00;-15917.19;5008210;28;52992;-50
2023/03/14 01:28:47;;;;;;;;;1.00;1.00;;;;;-147.17;100.00;-15917.19;5029621;28;52645;-47
2023/03/14 01:31:13;;;;;;;;;1.67;1.00;;;;;-147.17;100.00;-15917.19;4997742;28;51041;-47
2023/03/14 01:33:39;;;;;;;;;1.33;1.00;;;;;-147.17;100.00;-15917.19;5015187;28;50989;-46
2023/03/14 01:36:06;;;;;;;;;0.33;0.33;;;;;-147.17;100.00;-15917.19;5031764;28;51229;-49
2023/03/14 01:38:33;;;;;;;;;1.00;1.00;;;;;-147.17;100.00;-15917.19;5026733;28;51213;-46
2023/03/14 01:40:58;;;;;;;;;1.00;0.00;;;;;-147.17;100.00;-15917.19;5032310;28;50875;-45
2023/03/14 01:43:27;;;;;;;;;0.00;0.00;;;;;-147.17;100.00;-15917.19;5033198;28;51172;-46
2023/03/14 01:46:04;;;;;;;;;2.33;2.00;;;;;-147.17;100.00;-15917.19;5030555;28;52200;-47
2023/03/14 01:48:40;;;;;;;;;2.00;1.00;;;;;-147.17;100.00;-15917.19;5032367;28;50941;-47
2023/03/14 01:51:20;;;;;;;;;0.00;0.00;;;;;-147.17;100.00;-15917.19;5027726;28;51251;-49
2023/03/14 01:53:49;;;;;;;;;0.67;0.67;;;;;-147.17;100.00;-15917.19;5031670;28;51101;-47
2023/03/14 01:56:16;;;;;;;;;1.00;0.67;;;;;-147.17;100.00;-15917.19;5026967;28;51748;-48
2023/03/14 01:58:47;;;;;;;;;0.67;0.00;;;;;-147.17;100.00;-15917.19;5029852;28;51375;-48
2023/03/14 02:01:16;;;;;;;;;1.00;0.00;;;;;-147.17;100.00;-15917.19;5030719;28;51181;-48
2023/03/14 02:03:49;;;;;;;;;0.67;0.67;;;;;-147.17;100.00;-15917.19;5003296;28;51548;-51
2023/03/14 02:06:19;;;;;;;;;0.33;0.00;;;;;-147.17;100.00;-15917.19;5013628;28;53160;-50
2023/03/14 02:08:48;;;;;;;;;1.00;0.00;;;;;-147.17;100.00;-15917.19;5030232;28;50983;-49
2023/03/14 02:11:13;;;;;;;;;0.00;0.00;;;;;-147.17;100.00;-15917.19;5028256;28;51151;-48
2023/03/14 02:13:39;;;;;;;;;0.00;0.00;;;;;-147.17;100.00;-15917.19;5032981;28;51055;-49
2023/03/14 02:16:05;;;;;;;;;1.33;0.00;;;;;-147.17;100.00;-15917.19;5029831;28;52309;-49
2023/03/14 02:18:30;;;;;;;;;0.00;0.00;;;;;-147.17;100.00;-15917.19;5031840;28;51509;-51
2023/03/14 02:21:08;;;;;;;;;0.00;0.00;;;;;-147.17;100.00;-15917.19;5021414;28;51171;-49
2023/03/14 02:23:51;;;;;;;;;0.00;0.00;;;;;-147.17;100.00;-15917.19;5032045;28;50919;-51
2023/03/14 02:26:31;;;;;;;;;0.00;0.00;;;;;-147.17;100.00;-15917.19;5027464;28;51182;-47
2023/03/14 02:28:57;;;;;;;;;0.33;0.33;;;;;-147.17;100.00;-15917.19;5032807;28;51120;-48
2023/03/14 02:31:23;;;;;;;;;0.00;0.00;;;;;-147.17;100.00;-15917.19;5031456;28;51288;-49
2023/03/14 02:33:50;;;;;;;;;0.00;0.00;;;;;-147.17;100.00;-15917.19;5033550;28;51178;-48
2023/03/14 02:36:17;;;;;;;;;0.00;0.00;;;;;-147.17;100.00;-15917.19;5031275;28;51157;-47
2023/03/14 02:39:00;;;;;;;;;0.00;0.00;;;;;-147.17;100.00;-15917.19;5025337;28;51211;-53
2023/03/14 02:41:26;;;;;;;;;0.00;0.00;;;;;-147.17;100.00;-15917.19;5022267;28;51292;-48
2023/03/14 02:43:51;;;;;;;;;1.00;0.00;;;;;-147.17;100.00;-15917.19;5028280;28;51254;-50
2023/03/14 02:46:20;;;;;;;;;0.00;0.00;;;;;-147.17;100.00;-15917.19;5031596;28;51369;-48
2023/03/14 02:49:03;;;;;;;;;0.00;0.00;;;;;-147.17;100.00;-15917.19;5032348;28;51139;-47
2023/03/14 02:51:29;;;;;;;;;0.00;0.00;;;;;-147.17;100.00;-15917.19;5006047;28;51490;-47
2023/03/14 02:53:54;;;;;;;;;0.00;0.00;;;;;-147.17;100.00;-15917.19;5032444;28;51123;-48
2023/03/14 02:56:19;;;;;;;;;0.00;0.00;;;;;-147.17;100.00;-15917.19;5012677;28;55348;-46
2023/03/14 02:58:45;;;;;;;;;0.00;0.00;;;;;-147.17;100.00;-15917.19;5031757;28;51252;-46
2023/03/14 03:01:10;;;;;;;;;0.00;0.00;;;;;-147.17;100.00;-15917.19;5026567;28;51957;-47
2023/03/14 03:03:35;;;;;;;;;0.00;0.00;;;;;-147.17;100.00;-15917.19;5032791;28;51142;-48
2023/03/14 03:06:01;;;;;;;;;0.00;0.00;;;;;-147.17;100.00;-15917.19;5031189;28;51188;-48
2023/03/14 03:08:28;;;;;;;;;0.00;0.00;;;;;-147.17;100.00;-15917.19;5033332;28;51019;-47
2023/03/14 03:10:54;;;;;;;;;0.00;0.00;;;;;-147.17;100.00;-15917.19;5029339;28;51102;-50
2023/03/14 03:13:20;;;;;;;;;0.00;0.00;;;;;-147.17;100.00;-15917.19;5031932;28;51362;-50
2023/03/14 03:15:46;;;;;;;;;0.00;0.00;;;;;-147.17;100.00;-15917.19;5030606;28;51965;-49
2023/03/14 03:18:12;;;;;;;;;0.00;0.00;;;;;-147.17;100.00;-15917.19;5032815;28;50924;-47
2023/03/14 03:20:37;;;;;;;;;0.00;0.00;;;;;-147.17;100.00;-15917.19;5031159;28;51145;-48
2023/03/14 03:23:03;;;;;;;;;0.00;0.00;;;;;-147.17;100.00;-15917.19;5029214;28;51117;-47
2023/03/14 03:25:28;;;;;;;;;0.00;0.00;;;;;-147.17;100.00;-15917.19;5031773;28;51860;-45
2023/03/14 03:27:54;;;;;;;;;0.00;0.00;;;;;-147.17;100.00;-15917.19;5031387;28;51037;-46
2023/03/14 03:30:20;;;;;;;;;0.00;0.00;;;;;-147.17;100.00;-15917.19;5005460;28;51720;-47
2023/03/14 03:32:45;;;;;;;;;1.00;0.00;;;;;-147.17;100.00;-15917.19;5014252;28;51167;-48
2023/03/14 03:35:11;;;;;;;;;0.00;0.00;;;;;-147.17;100.00;-15917.19;5031276;28;51879;-49
2023/03/14 03:37:36;;;;;;;;;0.00;0.00;;;;;-147.17;100.00;-15917.19;5027819;28;51031;-56
2023/03/14 03:40:05;;;;;;;;;0.00;0.00;;;;;-147.17;100.00;-15917.19;5030517;28;51378;-51
2023/03/14 03:42:31;;;;;;;;;0.00;0.00;;;;;-147.17;100.00;-15917.19;5012837;28;51333;-48
2023/03/14 03:44:56;;;;;;;;;0.00;0.00;;;;;-147.17;100.00;-15917.19;5030161;28;52217;-50
2023/03/14 03:47:21;;;;;;;;;0.00;0.00;;;;;-147.17;100.00;-15917.19;5030228;28;51000;-49
2023/03/14 03:49:47;;;;;;;;;0.00;0.00;;;;;-147.17;100.00;-15917.19;5029755;28;51177;-49
2023/03/14 03:52:12;;;;;;;;;0.00;0.00;;;;;-147.17;100.00;-15917.19;5026118;28;51452;-47
2023/03/14 03:54:37;;;;;;;;;0.00;0.00;;;;;-147.17;100.00;-15917.19;5030483;28;51265;-47
2023/03/14 03:57:03;;;;;;;;;0.00;0.00;;;;;-147.17;100.00;-15917.19;5031570;28;51109;-46
2023/03/14 03:59:28;;;;;;;;;0.00;0.00;;;;;-147.17;100.00;-15917.19;5031423;28;51355;-47
2023/03/14 04:01:54;;;;;;;;;0.00;0.00;;;;;-147.17;100.00;-15917.19;5031917;28;51398;-49
2023/03/14 04:04:19;;;;;;;;;0.00;0.00;;;;;-147.17;100.00;-15917.19;5031728;28;55924;-50
2023/03/14 04:06:44;;;;;;;;;0.00;0.00;;;;;-147.17;100.00;-15917.19;4994230;28;51189;-48
2023/03/14 04:09:10;;;;;;;;;0.67;0.00;;;;;-147.17;100.00;-15917.19;5031165;28;50984;-48
2023/03/14 04:11:36;;;;;;;;;1.00;0.00;;;;;-147.17;100.00;-15917.19;5028475;28;51286;-48
2023/03/14 04:14:01;;;;;;;;;0.00;0.00;;;;;-147.17;100.00;-15917.19;5031168;28;51842;-48
2023/03/14 04:16:27;;;;;;;;;0.00;0.00;;;;;-147.17;100.00;-15917.19;5030352;28;52899;-48
2023/03/14 04:18:52;;;;;;;;;0.00;0.00;;;;;-147.17;100.00;-15917.19;5030215;28;51168;-50
2023/03/14 04:21:18;;;;;;;;;0.00;0.00;;;;;-147.17;100.00;-15917.19;5012618;28;51396;-48
2023/03/14 04:23:43;;;;;;;;;0.00;0.00;;;;;-147.17;100.00;-15917.19;5029849;28;52085;-48
2023/03/14 04:26:09;;;;;;;;;0.00;0.00;;;;;-147.17;100.00;-15917.19;5030840;28;50857;-48
2023/03/14 04:28:36;;;;;;;;;0.00;0.00;;;;;-147.17;100.00;-15917.19;5031243;28;51351;-48
2023/03/14 04:31:14;;;;;;;;;0.00;0.00;;;;;-147.17;100.00;-15917.19;5021427;28;51259;-48
2023/03/14 04:33:39;;;;;;;;;0.00;0.00;;;;;-147.17;100.00;-15917.19;5022985;28;53310;-48
2023/03/14 04:36:06;;;;;;;;;0.00;0.00;;;;;-147.17;100.00;-15917.19;5028115;28;51331;-48
2023/03/14 04:38:32;;;;;;;;;0.00;0.00;;;;;-147.17;100.00;-15917.19;5029961;28;51266;-47
2023/03/14 04:40:58;;;;;;;;;0.00;0.00;;;;;-147.17;100.00;-15917.19;5029752;28;51332;-50
2023/03/14 04:43:25;;;;;;;;;0.00;0.00;;;;;-147.17;100.00;-15917.19;5025127;28;52054;-49
2023/03/14 04:45:51;;;;;;;;;0.00;0.00;;;;;-147.17;100.00;-15917.19;5026664;28;51247;-47
2023/03/14 04:48:16;;;;;;;;;0.00;0.00;;;;;-147.17;100.00;-15917.19;5030371;28;50924;-47
2023/03/14 04:50:41;;;;;;;;;0.00;0.00;;;;;-147.17;100.00;-15917.19;5030891;28;51069;-47
2023/03/14 04:53:07;;;;;;;;;0.00;0.00;;;;;-147.17;100.00;-15917.19;5031057;28;51153;-47
2023/03/14 04:55:33;;;;;;;;;0.00;0.00;;;;;-147.17;100.00;-15917.19;5029236;28;51445;-49
2023/03/14 04:57:59;;;;;;;;;0.00;0.00;;;;;-147.17;100.00;-15917.19;5030732;28;52191;-49
2023/03/14 05:00:24;;;;;;;;;1.00;0.33;;;;;-147.17;100.00;-15917.19;5011948;28;51210;-50
2023/03/14 05:02:50;;;;;;;;;0.00;0.00;;;;;-147.17;100.00;-15917.19;5028494;28;51853;-47
2023/03/14 05:05:15;;;;;;;;;2.33;1.00;;;;;-147.17;100.00;-15917.19;5033438;28;51172;-48
2023/03/14 05:07:40;;;;;;;;;2.00;1.00;;;;;-147.17;100.00;-15917.19;5000310;28;51212;-50
2023/03/14 05:10:07;;;;;;;;;2.00;1.00;;;;;-147.17;100.00;-15917.19;5014889;28;51148;-48
2023/03/14 05:12:32;;;;;;;;;1.00;1.00;;;;;-147.17;100.00;-15917.19;5014398;28;51181;-49
2023/03/14 05:14:58;;;;;;;;;1.00;1.00;;;;;-147.17;100.00;-15917.19;5013961;28;58528;-48
2023/03/14 05:17:23;;;;;;;;;2.00;1.33;;;;;-147.17;100.00;-15917.19;5014051;28;51081;-50
2023/03/14 05:19:48;;;;;;;;;2.00;2.00;;;;;-147.17;100.00;-15917.19;4996048;28;51103;-51
2023/03/14 05:22:14;;;;;;;;;0.00;0.00;;;;;-147.17;100.00;-15917.19;5013805;28;50943;-52
2023/03/14 05:24:39;;;;;;;;;0.33;0.33;;;;;-147.17;100.00;-15917.19;5011076;28;51042;-47
2023/03/14 05:27:05;;;;;;;;;2.00;1.00;;;;;-147.17;100.00;-15917.19;5007154;28;51184;-51
2023/03/14 05:29:30;;;;;;;;;4.00;2.00;;;;;-147.17;100.00;-15917.19;5008734;28;51399;-50
2023/03/14 05:31:56;;;;;;;;;1.75;1.50;;;;;-147.17;100.00;-15917.19;5006724;28;51140;-51
2023/03/14 05:34:21;;;;;;;;;1.00;1.00;;;;;-147.17;100.00;-15917.19;5011871;28;51214;-49
2023/03/14 05:36:46;;;;;;;;;1.00;0.33;;;;;-147.17;100.00;-15917.19;5013208;28;51102;-48
2023/03/14 05:39:12;;;;;;;;;3.00;2.33;;;;;-147.17;100.00;-15917.19;5014609;28;51434;-49
2023/03/14 05:41:37;;;;;;;;;1.00;1.00;;;;;-147.17;100.00;-15917.19;5013617;28;52168;-48
2023/03/14 05:44:03;;;;;;;;;1.67;1.00;;;;;-147.17;100.00;-15917.19;4995307;28;51124;-46
2023/03/14 05:46:30;;;;;;;;;1.33;1.00;;;;;-147.17;100.00;-15917.19;5013584;28;51574;-48
2023/03/14 05:48:56;;;;;;;;;5.33;3.00;;;;;-147.17;100.00;-15917.19;4991991;28;51159;-49
2023/03/14 05:51:21;;;;;;;;;3.67;2.67;;;;;-147.17;100.00;-15917.19;5012964;28;51352;-48
2023/03/14 05:53:46;;;;;;;;;3.00;2.00;;;;;-147.17;100.00;-15917.19;5012040;28;53137;-47
2023/03/14 05:56:12;;;;;;;;;1.33;0.67;;;;;-147.17;100.00;-15917.19;5012373;28;51044;-47
2023/03/14 05:58:38;;;;;;;;;1.33;1.00;;;;;-147.17;100.00;-15917.19;4995278;28;51015;-46
2023/03/14 06:01:05;;;;;;;;;2.00;2.00;;;;;-147.17;100.00;-15917.19;5020497;28;51136;-49
2023/03/14 06:03:31;;;;;;;;;3.00;3.00;;;;;-147.17;100.00;-15917.19;5002733;28;51032;-47
2023/03/14 06:05:57;;;;;;;;;3.00;3.00;;;;;-147.17;100.00;-15917.19;5013508;28;51066;-51
2023/03/14 06:08:22;;;;;;;;;3.00;1.00;;;;;-147.17;100.00;-15917.19;5029250;28;53034;-48
2023/03/14 06:10:47;;;;;;;;;2.00;2.00;;;;;-147.17;100.00;-15917.19;5032577;28;51182;-48
2023/03/14 06:13:13;;;;;;;;;1.00;1.00;;;;;-147.17;100.00;-15917.19;5015889;28;51023;-49
2023/03/14 06:15:38;;;;;;;;;1.33;1.33;;;;;-147.17;100.00;-15917.19;5032830;28;50920;-49
2023/03/14 06:18:03;;;;;;;;;2.33;2.00;;;;;-147.17;100.00;-15917.19;5032973;28;51235;-48
2023/03/14 06:20:29;;;;;;;;;3.00;2.00;;;;;-147.17;100.00;-15917.19;5013796;28;51224;-47
2023/03/14 06:22:54;;;;;;;;;2.67;2.00;;;;;-147.17;100.00;-15917.19;5033099;28;51021;-49
2023/03/14 06:25:20;;;;;;;;;3.33;2.67;;;;;-147.17;100.00;-15917.19;5032347;28;51153;-48
2023/03/14 06:27:45;;;;;;;;;10.25;9.50;;;;;-147.17;100.00;-15917.19;5026674;28;51179;-47
2023/03/14 06:30:11;;;;;;;;;4.00;3.00;;;;;-147.17;100.00;-15917.19;5032197;28;51093;-47
2023/03/14 06:32:36;;;;;;;;;2.67;2.67;;;;;-147.17;100.00;-15917.19;5027663;28;51129;-50
2023/03/14 06:35:02;;;;;;;;;4.33;4.33;;;;;-147.17;100.00;-15917.19;5032807;28;51365;-50
2023/03/14 06:37:28;;;;;;;;;5.50;3.50;;;;;-147.17;100.00;-15917.19;5013379;28;51100;-52
2023/03/14 06:39:54;;;;;;;;;3.00;3.00;;;;;-147.17;100.00;-15917.19;5032150;28;52092;-49
2023/03/14 06:42:19;;;;;;;;;3.50;3.25;;;;;-147.17;100.00;-15917.19;5032621;28;51116;-49
2023/03/14 06:44:45;;;;;;;;;2.33;2.33;;;;;-147.17;100.00;-15917.19;5027566;28;51223;-46
2023/03/14 06:47:10;;;;;;;;;3.75;3.00;;;;;-147.17;100.00;-15917.19;5014781;28;51068;-48
2023/03/14 06:49:35;;;;;;;;;7.50;4.50;;;;;-147.17;100.00;-15917.19;5014837;28;53581;-48
2023/03/14 06:52:01;;;;;;;;;3.00;3.00;;;;;-147.17;100.00;-15917.19;5009116;28;51682;-49
2023/03/14 06:54:26;;;;;;;;;3.67;3.67;;;;;-147.17;100.00;-15917.19;5024144;28;51291;-47
2023/03/14 06:56:51;;;;;;;;;3.25;3.00;;;;;-147.17;100.00;-15917.19;5031340;28;51181;-49
2023/03/14 06:59:17;;;;;;;;;3.33;3.33;;;;;-147.17;100.00;-15917.19;5014317;28;51947;-49
2023/03/14 07:01:42;;;;;;;;;3.00;3.00;;;;;-147.17;100.00;-15917.19;5028694;28;51193;-50
2023/03/14 07:04:09;;;;;;;;;6.00;5.67;;;;;-147.17;100.00;-15917.19;5029894;28;51691;-47
2023/03/14 07:06:34;;;;;;;;;3.75;3.00;;;;;-147.17;100.00;-15917.19;5015716;28;51233;-50
2023/03/14 07:09:00;;;;;;;;;4.25;4.25;;;;;-147.17;100.00;-15917.19;5032137;28;51240;-49
2023/03/14 07:11:26;;;;;;;;;4.00;4.00;;;;;-147.17;100.00;-15917.19;5013662;28;51441;-49
2023/03/14 07:13:51;;;;;;;;;3.00;3.00;;;;;-147.17;100.00;-15917.19;5032400;28;51054;-47
2023/03/14 07:16:16;;;;;;;;;3.33;2.33;;;;;-147.17;100.00;-15917.19;5033025;28;51035;-48
2023/03/14 07:18:42;;;;;;;;;3.67;3.00;;;;;-147.17;100.00;-15917.19;5023694;28;51937;-47
2023/03/14 07:21:08;;;;;;;;;3.00;2.33;;;;;-147.17;100.00;-15917.19;5011062;28;51187;-50
2023/03/14 07:23:34;;;;;;;;;3.33;2.00;;;;;-147.17;100.00;-15917.19;5029017;28;51184;-51
2023/03/14 07:26:00;;;;;;;;;4.00;4.00;;;;;-147.17;100.00;-15917.19;5024267;28;51216;-47
2023/03/14 07:28:27;;;;;;;;;4.00;2.00;;;;;-147.17;100.00;-15917.19;5029422;28;52029;-48
2023/03/14 07:30:52;;;;;;;;;2.00;1.00;;;;;-147.17;100.00;-15917.19;5029381;28;51333;-49
2023/03/14 07:33:18;;;;;;;;;1.33;1.33;;;;;-147.17;100.00;-15917.19;5034737;28;50984;-47
2023/03/14 07:35:43;;;;;;;;;1.00;1.00;;;;;-147.17;100.00;-15917.19;5031038;28;51290;-48
2023/03/14 07:38:08;;;;;;;;;4.33;2.00;;;;;-147.17;100.00;-15917.19;5030837;28;50995;-47
2023/03/14 07:40:34;;;;;;;;;2.67;2.00;;;;;-147.17;100.00;-15917.19;5031291;28;51045;-46
2023/03/14 07:42:59;;;;;;;;;2.00;1.67;;;;;-147.17;100.00;-15917.19;5031014;28;51331;-49
2023/03/14 07:45:24;;;;;;;;;1.67;1.00;;;;;-147.17;100.00;-15917.19;5028813;28;51227;-50
2023/03/14 07:47:50;;;;;;;;;2.67;2.67;;;;;-147.17;100.00;-15917.19;5014916;28;51686;-48
2023/03/14 07:50:15;;;;;;;;;2.33;2.00;;;;;-147.17;100.00;-15917.19;5028400;28;51233;-51
2023/03/14 07:52:41;;;;;;;;;1.33;1.00;;;;;-147.17;100.00;-15917.19;5008882;28;51191;-50
2023/03/14 07:55:07;;;;;;;;;2.00;2.00;;;;;-147.17;100.00;-15917.19;5032097;28;50916;-47
2023/03/14 07:57:32;;;;;;;;;3.33;2.00;;;;;-147.17;100.00;-15917.19;5032103;28;51159;-48
2023/03/14 07:59:57;;;;;;;;;4.00;3.00;;;;;-147.17;100.00;-15917.19;5013346;28;51067;-46
2023/03/14 08:02:23;;;;;;;;;2.00;1.00;;;;;-147.17;100.00;-15917.19;5041730;28;51146;-49
2023/03/14 08:04:50;;;;;;;;;3.50;1.00;;;;;-147.17;100.00;-15917.19;5033056;28;51151;-49
2023/03/14 08:07:15;;;;;;;;;1.33;1.33;;;;;-147.17;100.00;-15917.19;5027155;28;51444;-48
2023/03/14 08:09:41;;;;;;;;;1.33;1.33;;;;;-147.17;100.00;-15917.19;5031274;28;50988;-51
2023/03/14 08:12:07;;;;;;;;;3.67;2.00;;;;;-147.17;100.00;-15917.19;5026018;28;51049;-51
2023/03/14 08:14:33;;;;;;;;;1.00;1.00;;;;;-147.17;100.00;-15917.19;5031647;28;51018;-48
2023/03/14 08:16:58;;;;;;;;;4.00;3.67;;;;;-147.17;100.00;-15917.19;5012677;28;51856;-51
2023/03/14 08:19:24;;;;;;;;;8.67;6.67;;;;;-147.17;100.00;-15917.19;5031383;28;51217;-49
2023/03/14 08:21:50;;;;;;;;;4.00;3.67;;;;;-147.17;100.00;-15917.19;5030548;28;51233;-49
2023/03/14 08:24:15;;;;;;;;;4.00;3.00;;;;;-147.17;100.00;-15917.19;5029590;28;51032;-49
2023/03/14 08:26:41;;;;;;;;;2.67;1.67;;;;;-147.17;100.00;-15917.19;5024271;28;51208;-49
2023/03/14 08:29:07;;;;;;;;;6.00;6.00;;;;;-147.17;100.00;-15917.19;5011572;28;51183;-46
2023/03/14 08:31:34;;;;;;;;;4.00;3.00;;;;;-147.17;100.00;-14924.75;5031563;28;51166;-48
2023/03/14 08:33:59;;;;;;;;;1.33;1.00;;;;;-147.17;100.00;-15668.00;5031159;28;51286;-50
2023/03/14 08:36:25;;;;;;;;;3.00;2.00;;;;;-147.17;100.00;-15915.72;5028296;28;51655;-48
2023/03/14 08:38:50;;;;;;;;;2.00;2.00;;;;;-147.17;100.00;-15668.00;5029598;28;51070;-51
2023/03/14 08:41:16;;;;;;;;;3.00;2.00;;;;;-147.17;100.00;-14429.16;5032970;28;51142;-50
2023/03/14 08:43:42;;;;;;;;;1.33;1.00;;;;;-147.17;100.00;-10710.16;5022247;28;51082;-51
2023/03/14 08:46:07;;;;;;;;;2.33;2.33;;;;;-147.17;100.00;-12694.06;5014707;28;53901;-53
2023/03/14 08:48:33;;;;;;;;;3.00;2.00;;;;;-147.17;100.00;-10710.16;5007183;28;50968;-51
2023/03/14 08:51:10;;;;;;;;;1.33;1.33;;;;;-147.17;100.00;-10958.19;5014338;28;51304;-49
2023/03/14 08:53:36;;;;;;;;;0.67;0.67;;;;;-147.17;100.00;-11454.25;5033669;28;51132;-49
2023/03/14 08:56:03;;;;;;;;;5.00;4.67;;;;;-147.17;100.00;-9965.91;5015705;28;53420;-52
2023/03/14 08:58:29;;;;;;;;;3.67;2.67;;;;;-147.17;100.00;-11454.25;5014869;28;51118;-51
2023/03/14 09:00:54;;;;;;;;;8.33;8.00;;;;;-147.17;100.00;-12446.13;5037673;28;51045;-51
2023/03/14 09:03:22;;;;;;;;;2.67;2.67;;;;;-147.17;100.00;-9717.81;5035915;28;51236;-48
2023/03/14 09:05:49;;;;;;;;;2.67;2.00;;;;;-147.17;100.00;-9469.69;5029054;28;52796;-48
2023/03/14 09:08:14;;;;;;;;;1.67;1.33;;;;;-147.17;100.00;-10958.19;5028976;28;51286;-48
2023/03/14 09:10:39;;;;;;;;;0.67;0.67;;;;;-147.17;100.00;-11454.25;5033142;28;55430;-47
2023/03/14 09:13:04;;;;;;;;;2.00;1.67;;;;;-147.17;100.00;-11950.22;5031615;28;51189;-48
2023/03/14 09:15:30;;;;;;;;;5.00;2.67;;;;;-147.17;100.00;-11702.25;5033591;28;51896;-47
2023/03/14 09:17:55;;;;;;;;;4.67;4.33;;;;;-147.17;100.00;-12198.19;5033474;28;51239;-48
2023/03/14 09:20:21;;;;;;;;;3.00;3.00;;;;;-147.17;100.00;-12694.06;5015103;28;51200;-47
2023/03/14 09:22:46;;;;;;;;;3.67;3.67;;;;;-147.17;100.00;-12198.19;5009232;28;51349;-48
2023/03/14 09:25:11;;;;;;;;;3.00;2.67;;;;;-147.17;100.00;-11702.25;5027812;28;51207;-48
2023/03/14 09:27:37;;;;;;;;;3.00;3.00;;;;;-147.17;100.00;-12941.97;5031802;28;51237;-50
2023/03/14 09:30:04;;;;;;;;;2.33;1.67;;;;;-147.17;100.00;-14676.94;5033732;28;51167;-48
2023/03/14 09:32:31;;;;;;;;;2.33;2.00;;;;;-147.17;100.00;-15668.00;5017383;28;51570;-50
2023/03/14 09:34:57;;;;;;;;;3.00;2.00;;;;;-147.17;100.00;-15917.19;5032750;28;52177;-47
2023/03/14 09:37:22;;;;;;;;;2.00;1.67;;;;;-147.17;100.00;-15917.19;5033755;28;51006;-51
2023/03/14 09:39:47;;;;;;;;;1.00;0.67;;;;;-147.17;100.00;-15917.19;5033395;28;51137;-49
2023/03/14 09:42:17;;;;;;;;;3.00;2.67;;;;;-147.17;100.00;-15917.19;5030934;28;51066;-51
2023/03/14 09:44:51;;;;;;;;;1.33;1.00;;;;;-147.17;100.00;-15917.19;5028321;28;51987;-48
2023/03/14 09:47:19;;;;;;;;;1.00;1.00;;;;;-147.17;100.00;-15917.19;5029446;28;51055;-49
2023/03/14 09:49:45;;;;;;;;;1.00;1.00;;;;;-147.17;100.00;-15917.19;5034107;28;51228;-50
2023/03/14 09:52:21;;;;;;;;;2.33;2.33;;;;;-147.17;100.00;-15917.19;5032699;28;51134;-49
2023/03/14 09:54:49;;;;;;;;;1.00;1.00;;;;;-147.17;100.00;-15917.19;5032722;28;51968;-49
2023/03/14 09:57:19;;;;;;;;;1.00;1.00;;;;;-147.17;100.00;-15917.19;5031675;28;51137;-48
2023/03/14 09:59:47;;;;;;;;;5.00;3.67;;;;;-147.17;100.00;-15917.19;5039636;28;51258;-48
2023/03/14 10:02:22;;;;;;;;;1.33;1.33;;;;;-147.17;100.00;-15917.19;5000271;28;51292;-47
2023/03/14 10:04:50;;;;;;;;;1.00;1.00;;;;;-147.17;100.00;-15917.19;5031372;28;51256;-49
2023/03/14 10:07:27;;;;;;;;;0.67;0.67;;;;;-147.17;100.00;-15917.19;5031032;28;51141;-48
2023/03/14 10:09:52;;;;;;;;;2.33;1.00;;;;;-147.17;100.00;-15917.19;5031652;28;51105;-49
2023/03/14 10:12:19;;;;;;;;;2.67;1.00;;;;;-147.17;100.00;-15917.19;5042570;28;51230;-47
2023/03/14 10:14:53;;;;;;;;;2.67;1.00;;;;;-147.17;100.00;-15917.19;5026927;28;52234;-49
2023/03/14 10:17:20;;;;;;;;;0.00;0.00;;;;;-147.17;100.00;-15917.19;5014041;28;51161;-48
2023/03/14 10:19:59;;;;;;;;;1.00;1.00;;;;;-147.17;100.00;-15917.19;5019613;28;51307;-49
2023/03/14 10:22:29;;;;;;;;;2.00;1.00;;;;;-147.17;100.00;-15917.19;4996299;28;51510;-50
2023/03/14 10:25:07;;;;;;;;;1.00;1.00;;;;;-147.17;100.00;-15917.19;5032518;28;51936;-50
2023/03/14 10:27:34;;;;;;;;;1.00;1.00;;;;;-147.17;100.00;-15917.19;5015362;28;51318;-51
2023/03/14 10:30:07;;;;;;;;;2.33;2.33;;;;;-147.17;100.00;-15917.19;5032046;28;51041;-51
2023/03/14 10:32:36;;;;;;;;;0.00;0.00;;;;;-147.17;100.00;-15917.19;5029606;28;51048;-50
2023/03/14 10:35:17;;;;;;;;;1.00;1.00;;;;;-147.17;100.00;-15917.19;5011157;28;52308;-49
2023/03/14 10:38:03;;;;;;;;;2.33;2.33;;;;;-147.17;100.00;-15917.19;5024243;28;51258;-50
2023/03/14 10:40:37;;;;;;;;;3.00;1.00;;;;;-147.17;100.00;-15917.19;5031510;28;51187;-50
2023/03/14 10:43:05;;;;;;;;;1.33;1.00;;;;;-147.17;100.00;-15917.19;5030742;28;51370;-48
2023/03/14 10:45:32;;;;;;;;;2.67;1.67;;;;;-147.17;100.00;-15917.19;5028566;28;52136;-50
2023/03/14 10:48:07;;;;;;;;;1.00;1.00;;;;;-147.17;100.00;-14676.94;5029868;28;51184;-47
2023/03/14 10:50:33;;;;;;;;;3.00;2.00;;;;;-147.17;100.00;-15420.25;5029120;28;51062;-50
2023/03/14 10:53:05;;;;;;;;;3.00;2.00;;;;;-147.17;100.00;-15420.25;5030469;28;51383;-54
2023/03/14 10:55:40;;;;;;;;;3.33;2.00;;;;;-147.17;100.00;-13685.63;5031433;28;51892;-51
2023/03/14 10:58:24;;;;;;;;;2.00;1.00;;;;;-147.17;100.00;-10462.09;5018873;28;53930;-48
2023/03/14 11:01:19;;;;;;;;;0.67;0.67;;;;;-147.17;100.00;-3012.78;5034280;28;51021;-48